createdAt,value
2023-04-21T00:13:01.213Z,61.15
2023-04-21T00:28:03.822Z,60.15
2023-04-21T00:43:07.700Z,60.23
2023-04-21T00:58:10.431Z,62.35
2023-04-21T01:13:13.063Z,60.82
2023-04-21T01:28:16.011Z,59.76
2023-04-21T01:43:22.614Z,60.47
2023-04-21T01:58:25.326Z,59.61
2023-04-21T02:13:27.866Z,60.99
2023-04-21T02:28:31.759Z,59.48
2023-04-21T02:43:34.517Z,60.60
2023-04-21T02:58:37.615Z,59.33
2023-04-21T03:13:40.480Z,62.44
2023-04-21T03:28:43.075Z,62.31
2023-04-21T03:43:45.881Z,62.06
2023-04-21T03:58:49.597Z,62.19
2023-04-21T04:13:52.246Z,63.57
2023-04-21T04:28:56.513Z,62.58
2023-04-21T04:44:00.935Z,58.76
2023-04-21T04:59:03.989Z,56.31
2023-04-21T05:14:06.780Z,55.53
2023-04-21T05:29:09.519Z,52.77
2023-04-21T05:44:12.124Z,47.64
2023-04-21T05:59:14.839Z,45.91
2023-04-21T06:14:17.609Z,43.27
2023-04-21T06:29:21.055Z,44.59
2023-04-21T06:44:23.928Z,41.83
2023-04-21T06:59:26.563Z,42.25
2023-04-21T07:14:29.493Z,39.16
2023-04-21T07:29:32.119Z,40.27
2023-04-21T07:44:35.380Z,34.53
2023-04-21T07:59:38.275Z,34.63
2023-04-21T08:14:41.373Z,35.63
2023-04-21T08:29:43.981Z,33.90
2023-04-21T08:44:47.181Z,34.24
2023-04-21T08:59:49.858Z,34.58
2023-04-21T09:14:52.680Z,34.28
2023-04-21T09:29:55.603Z,36.89
2023-04-21T09:45:10.880Z,35.65
2023-04-21T10:00:22.643Z,35.42
2023-04-21T10:15:31.637Z,33.50
2023-04-21T10:30:34.375Z,34.33
2023-04-21T10:45:38.296Z,33.28
2023-04-21T11:00:41.356Z,32.02
2023-04-21T11:16:08.371Z,35.42
2023-04-21T11:31:11.511Z,35.46
2023-04-21T11:46:28.074Z,35.42
2023-04-21T12:01:30.765Z,36.29
2023-04-21T12:16:33.897Z,37.04
2023-04-21T12:31:36.591Z,36.92
2023-04-21T12:46:39.794Z,37.73
2023-04-21T13:01:44.134Z,37.93
2023-04-21T13:16:46.985Z,37.58
2023-04-21T13:31:49.850Z,39.11
2023-04-21T13:46:54.017Z,37.53
2023-04-21T14:01:56.938Z,37.47
2023-04-21T14:17:00.262Z,37.95
2023-04-21T14:32:03.250Z,37.44
2023-04-21T14:47:09.887Z,37.93
2023-04-21T15:02:14.298Z,38.62
2023-04-21T15:17:17.721Z,39.25
2023-04-21T15:32:20.935Z,39.45
2023-04-21T15:47:23.902Z,39.42
2023-04-21T16:02:26.733Z,40.47
2023-04-21T16:17:29.953Z,41.67
2023-04-21T16:32:35.331Z,41.18
2023-04-21T16:47:41.542Z,41.98
2023-04-21T17:02:45.114Z,42.65
2023-04-21T17:17:49.513Z,43.32
2023-04-21T17:33:04.140Z,43.76
2023-04-21T17:48:11.596Z,44.22
2023-04-21T18:03:14.531Z,44.70
2023-04-21T18:18:17.244Z,45.54
2023-04-21T18:33:20.216Z,46.13
2023-04-21T18:48:22.829Z,46.55
2023-04-21T19:03:26.095Z,47.27
2023-04-21T19:18:28.873Z,47.22
2023-04-21T19:33:31.715Z,47.93
2023-04-21T19:48:34.402Z,48.01
2023-04-21T20:03:37.371Z,48.03
2023-04-21T20:18:40.337Z,48.05
2023-04-21T20:33:43.090Z,48.11
2023-04-21T20:48:45.842Z,48.44
2023-04-21T21:03:48.876Z,48.53
2023-04-21T21:18:51.892Z,49.42
2023-04-21T21:33:55.235Z,50.08
2023-04-21T21:48:57.914Z,52.05
2023-04-21T22:04:00.758Z,53.69
2023-04-21T22:19:03.527Z,55.53
2023-04-21T22:34:06.171Z,57.70
2023-04-21T22:49:09.278Z,57.82
2023-04-21T23:04:12.179Z,58.99
2023-04-21T23:19:14.980Z,60.26
2023-04-21T23:34:17.581Z,56.14
2023-04-21T23:49:20.266Z,55.99
